Weather at Mora Municipal Airport

Public forecast

Using degrees Fahrenheit for public forecast. Weather courtesy of forecast.io.

Current aviation weather report (METAR) for Mora Municipal Airport

2024/07/13 18:55 (retrieved 7 minutes ago)

KJMR 131855Z AUTO 21008KT 10SM 26/16 A3002 RMK AO2

Closest aviation forecast (TAF) to Mora Municipal Airport

Closest forecast is Saint Cloud Regional Airport, 38.8 nm (71.9 km) WSW.

2024/07/13 18:42 (retrieved 20 minutes ago)

TAF KSTC 131739Z 1318/1418 17009KT P6SM SCT040 FM140000 16006KT P6SM VCSH SCT040 PROB30 1400/1405 4SM -TSRA BR BKN035CB FM140500 VRB03KT P6SM SCT200 TEMPO 1410/1412 5SM BR